Time;durP1;ratioP1;P1;durP2;ratioP2;P2;SDS_P1;SDS_P2;PMS_P1;PMS_P2;Temp;Humidity;BMP_temperature;BMP_pressure;BME280_temperature;BME280_humidity;BME280_pressure;Samples;Min_cycle;Max_cycle;Signal;HPM_P1;HPM_P2
2023/03/07 00:02:10;;;;;;;23.27;16.53;;;2.60;99.90;;;;;;4992439;28;20173;-83
2023/03/07 00:04:36;;;;;;;22.13;15.73;;;2.60;99.90;;;;;;4991826;28;20177;-83
2023/03/07 00:07:01;;;;;;;19.67;15.70;;;2.70;99.90;;;;;;4991657;28;20211;-83
2023/03/07 00:09:27;;;;;;;22.07;16.87;;;2.60;99.90;;;;;;4991381;28;20180;-83
2023/03/07 00:11:53;;;;;;;23.77;16.73;;;2.60;99.90;;;;;;4991439;28;20192;-83
2023/03/07 00:14:19;;;;;;;20.50;16.03;;;2.50;99.90;;;;;;4991369;28;20211;-83
2023/03/07 00:16:50;;;;;;;21.97;16.53;;;2.50;99.90;;;;;;4991852;28;20277;-83
2023/03/07 00:19:17;;;;;;;22.73;16.07;;;2.50;99.90;;;;;;4992102;28;20188;-83
2023/03/07 00:21:43;;;;;;;21.73;16.67;;;2.40;99.90;;;;;;4991348;28;20172;-83
2023/03/07 00:24:09;;;;;;;20.80;15.90;;;2.40;99.90;;;;;;4991581;28;20263;-83
2023/03/07 00:26:38;;;;;;;22.83;16.73;;;2.40;99.90;;;;;;4991075;28;20227;-83
2023/03/07 00:29:08;;;;;;;22.57;16.57;;;2.40;99.90;;;;;;4991228;28;20180;-83
2023/03/07 00:31:34;;;;;;;22.73;16.30;;;2.30;99.90;;;;;;4991431;28;20184;-83
2023/03/07 00:34:00;;;;;;;21.50;16.83;;;2.30;99.90;;;;;;4991857;28;20180;-83
2023/03/07 00:36:26;;;;;;;21.77;16.07;;;2.30;99.90;;;;;;4990851;28;20250;-83
2023/03/07 00:38:53;;;;;;;24.00;16.57;;;2.30;99.90;;;;;;4991120;28;20236;-83
2023/03/07 00:41:18;;;;;;;21.80;16.37;;;2.40;99.90;;;;;;4991343;28;20177;-83
2023/03/07 00:43:45;;;;;;;23.47;16.93;;;2.40;99.90;;;;;;4991072;28;20176;-83
2023/03/07 00:46:12;;;;;;;21.20;16.00;;;2.50;99.90;;;;;;4990217;28;20196;-83
2023/03/07 00:48:38;;;;;;;23.40;17.17;;;2.50;99.90;;;;;;4991187;28;20180;-83
2023/03/07 00:51:06;;;;;;;23.80;17.00;;;2.50;99.90;;;;;;4992477;28;20180;-83
2023/03/07 00:53:33;;;;;;;21.37;16.23;;;2.50;99.90;;;;;;4991935;28;20172;-83
2023/03/07 00:56:01;;;;;;;22.13;16.40;;;2.50;99.90;;;;;;4991247;28;20197;-83
2023/03/07 00:58:28;;;;;;;22.63;17.40;;;2.50;99.90;;;;;;4990847;28;20208;-83
2023/03/07 01:00:54;;;;;;;23.20;16.90;;;2.50;99.90;;;;;;4990666;28;20172;-83
2023/03/07 01:03:21;;;;;;;23.13;17.20;;;2.50;99.90;;;;;;4990770;28;20183;-83
2023/03/07 01:05:46;;;;;;;22.93;17.60;;;2.50;99.90;;;;;;4990850;28;20200;-83
2023/03/07 01:08:13;;;;;;;21.37;16.40;;;2.50;99.90;;;;;;4990714;28;20187;-83
2023/03/07 01:10:39;;;;;;;21.60;15.97;;;2.60;99.90;;;;;;4990874;28;20226;-83
2023/03/07 01:13:04;;;;;;;20.60;16.77;;;2.60;99.90;;;;;;4991094;28;20588;-83
2023/03/07 01:15:31;;;;;;;21.87;16.73;;;2.60;99.90;;;;;;4990454;28;20586;-83
2023/03/07 01:17:57;;;;;;;23.23;17.00;;;2.60;99.90;;;;;;4990341;28;20204;-83
2023/03/07 01:20:22;;;;;;;22.83;17.67;;;2.60;99.90;;;;;;4990379;28;20189;-83
2023/03/07 01:22:48;;;;;;;21.77;17.47;;;2.70;99.90;;;;;;4990584;28;20183;-83
2023/03/07 01:25:14;;;;;;;22.67;17.80;;;2.70;99.90;;;;;;4990249;28;20270;-83
2023/03/07 01:27:40;;;;;;;23.60;16.70;;;2.60;99.90;;;;;;4990173;28;20208;-83
2023/03/07 01:30:07;;;;;;;25.37;17.97;;;2.60;99.90;;;;;;4990526;28;20287;-83
2023/03/07 01:32:32;;;;;;;23.20;17.67;;;2.60;99.90;;;;;;4990142;28;20184;-83
2023/03/07 01:34:58;;;;;;;23.40;18.17;;;2.60;99.90;;;;;;4990121;28;20198;-83
2023/03/07 01:37:24;;;;;;;23.43;17.97;;;2.60;99.90;;;;;;4989996;28;20217;-83
2023/03/07 01:39:51;;;;;;;22.83;17.40;;;2.60;99.90;;;;;;4990115;28;20255;-83
2023/03/07 01:42:17;;;;;;;24.73;18.53;;;2.60;99.90;;;;;;4991256;28;20172;-83
2023/03/07 01:45:06;;;;;;;24.70;18.37;;;2.60;99.90;;;;;;4990177;28;20176;-83
2023/03/07 01:47:32;;;;;;;26.03;18.83;;;2.70;99.90;;;;;;4990357;28;20200;-83
2023/03/07 01:50:01;;;;;;;23.13;17.97;;;2.70;99.90;;;;;;4990548;28;20187;-83
2023/03/07 01:52:34;;;;;;;24.13;18.00;;;2.70;99.90;;;;;;4990112;28;20614;-83
2023/03/07 01:55:12;;;;;;;27.23;18.43;;;2.70;99.90;;;;;;4990160;28;20180;-83
2023/03/07 01:57:39;;;;;;;27.87;18.83;;;2.70;99.90;;;;;;4990094;28;20235;-83
2023/03/07 02:00:10;;;;;;;24.20;17.97;;;2.70;99.90;;;;;;4993585;28;20211;-83
2023/03/07 06:50:30;;;;;;;19.23;15.87;;;3.00;99.90;;;;;;5353872;23;20232;-92
2023/03/07 06:53:28;;;;;;;17.90;15.70;;;2.90;99.90;;;;;;4979954;28;20184;-91
2023/03/07 06:55:54;;;;;;;18.43;15.50;;;3.00;99.90;;;;;;4982181;28;20180;-91
2023/03/07 06:58:20;;;;;;;20.93;16.90;;;3.00;99.90;;;;;;4981129;28;20219;-91
2023/03/07 07:00:46;;;;;;;19.13;16.27;;;3.00;99.90;;;;;;4979581;28;20180;-90
2023/03/07 07:03:13;;;;;;;18.80;15.83;;;3.10;99.90;;;;;;4979521;28;20194;-91
2023/03/07 07:05:39;;;;;;;19.90;15.83;;;3.10;99.90;;;;;;4979369;28;20239;-91
2023/03/07 07:08:05;;;;;;;20.10;17.13;;;3.10;99.90;;;;;;4996636;28;20227;-91
2023/03/07 07:10:31;;;;;;;20.67;18.37;;;3.10;99.90;;;;;;4995391;28;20287;-91
2023/03/07 07:12:56;;;;;;;24.30;21.10;;;3.10;99.90;;;;;;4995680;28;20186;-91
2023/03/07 07:15:23;;;;;;;20.33;18.00;;;3.20;99.90;;;;;;4995052;28;20611;-91
2023/03/07 07:17:52;;;;;;;21.27;17.20;;;3.20;99.90;;;;;;4996562;28;20243;-91
2023/03/07 07:20:18;;;;;;;44.93;20.77;;;3.20;99.90;;;;;;4979143;28;20222;-91
2023/03/07 07:22:44;;;;;;;27.03;17.63;;;3.20;99.90;;;;;;4979038;28;20188;-91
2023/03/07 07:25:10;;;;;;;23.37;18.27;;;3.20;99.90;;;;;;4995145;28;20311;-91
2023/03/07 07:27:39;;;;;;;18.30;15.90;;;3.20;99.90;;;;;;4995094;28;20200;-91
2023/03/07 07:30:06;;;;;;;18.40;16.23;;;3.10;99.90;;;;;;4978741;28;20311;-91
2023/03/07 07:32:32;;;;;;;21.33;16.43;;;3.10;99.90;;;;;;4979268;28;20195;-91
2023/03/07 07:34:57;;;;;;;18.17;15.30;;;3.20;99.90;;;;;;4979060;28;20184;-91
2023/03/07 07:37:23;;;;;;;20.10;17.10;;;3.20;99.90;;;;;;4978650;28;20247;-91
2023/03/07 07:39:50;;;;;;;18.93;16.40;;;3.30;99.90;;;;;;5011909;28;20172;-91
2023/03/07 07:42:15;;;;;;;19.43;16.07;;;3.30;99.90;;;;;;4996707;28;20184;-91
2023/03/07 07:44:42;;;;;;;21.87;16.17;;;3.30;99.90;;;;;;5011336;28;20259;-92
2023/03/07 07:47:08;;;;;;;59.60;20.47;;;3.30;99.90;;;;;;4978827;28;20219;-92
2023/03/07 07:49:34;;;;;;;73.63;20.90;;;3.50;99.90;;;;;;5011467;28;20223;-91
2023/03/07 07:52:00;;;;;;;26.77;17.40;;;3.60;99.90;;;;;;5012178;28;20169;-91
2023/03/07 07:54:25;;;;;;;28.87;16.77;;;3.70;99.90;;;;;;5011331;28;20231;-91
2023/03/07 07:56:51;;;;;;;20.27;15.10;;;3.80;99.90;;;;;;5010731;28;20224;-91
2023/03/07 07:59:17;;;;;;;19.87;16.03;;;3.90;99.90;;;;;;5011022;28;20191;-90
2023/03/07 08:01:42;;;;;;;20.67;15.90;;;4.00;99.90;;;;;;5010934;28;20176;-91
2023/03/07 08:04:08;;;;;;;20.73;15.47;;;3.90;99.90;;;;;;5010546;28;20215;-91
2023/03/07 08:06:34;;;;;;;18.60;15.40;;;4.00;99.90;;;;;;5010931;28;20263;-91
2023/03/07 08:09:00;;;;;;;18.27;15.30;;;4.00;99.90;;;;;;5010669;28;20200;-91
2023/03/07 08:11:25;;;;;;;36.70;17.13;;;4.10;99.90;;;;;;4995011;28;20263;-91
2023/03/07 08:13:51;;;;;;;76.33;25.27;;;4.40;99.90;;;;;;4978362;28;20180;-92
2023/03/07 08:16:19;;;;;;;30.50;16.87;;;4.60;99.90;;;;;;4993996;28;20274;-92
2023/03/07 08:18:54;;;;;;;37.63;16.77;;;4.70;99.90;;;;;;4977808;28;20239;-92
2023/03/07 08:21:21;;;;;;;33.77;16.60;;;4.90;99.90;;;;;;4978231;28;20176;-91
2023/03/07 08:23:47;;;;;;;17.83;15.33;;;5.00;99.90;;;;;;4977589;28;20639;-91
2023/03/07 08:26:13;;;;;;;19.53;15.93;;;5.10;99.90;;;;;;4977757;28;20288;-92
2023/03/07 08:28:40;;;;;;;16.53;13.97;;;5.30;99.90;;;;;;5010223;28;20200;-91
2023/03/07 08:31:07;;;;;;;17.37;14.27;;;5.40;99.90;;;;;;4977921;28;20180;-92
2023/03/07 08:33:33;;;;;;;16.23;13.90;;;5.50;99.90;;;;;;4978386;28;20192;-92
2023/03/07 08:35:59;;;;;;;21.17;14.87;;;5.40;99.90;;;;;;5010066;28;20558;-91
2023/03/07 08:38:25;;;;;;;15.30;13.57;;;5.40;99.90;;;;;;4977328;28;20222;-92
2023/03/07 08:40:51;;;;;;;27.70;15.00;;;5.50;99.90;;;;;;5009236;28;20203;-91
2023/03/07 08:43:16;;;;;;;16.53;14.33;;;5.50;99.90;;;;;;4993950;28;20203;-92
2023/03/07 08:45:42;;;;;;;36.60;17.30;;;5.30;99.90;;;;;;4993992;28;20199;-92
2023/03/07 08:48:09;;;;;;;75.73;21.30;;;5.20;99.90;;;;;;4994862;28;20200;-91
2023/03/07 08:50:35;;;;;;;22.73;14.83;;;5.20;99.90;;;;;;4993061;28;20203;-92
2023/03/07 08:53:01;;;;;;;17.87;14.40;;;5.20;99.90;;;;;;4998817;28;20184;-92
2023/03/07 08:55:26;;;;;;;18.57;13.43;;;5.30;99.90;;;;;;4993683;28;20185;-92
2023/03/07 08:57:52;;;;;;;17.67;14.43;;;5.30;99.90;;;;;;4993571;28;20219;-91
2023/03/07 09:00:18;;;;;;;19.10;14.67;;;5.20;99.90;;;;;;4993195;28;20172;-92
2023/03/07 09:02:44;;;;;;;32.40;15.80;;;5.30;99.90;;;;;;4995164;28;20172;-92
2023/03/07 09:05:09;;;;;;;26.47;15.33;;;5.40;99.90;;;;;;4993385;28;20184;-91
2023/03/07 09:07:35;;;;;;;28.00;14.67;;;5.70;99.90;;;;;;4992671;28;20231;-91
2023/03/07 09:10:01;;;;;;;23.53;13.93;;;5.90;99.90;;;;;;4993510;28;20177;-92
2023/03/07 09:12:26;;;;;;;18.83;13.73;;;6.00;99.90;;;;;;4993425;28;20315;-91
2023/03/07 09:14:53;;;;;;;16.27;14.18;;;6.00;99.90;;;;;;4993069;28;20188;-91
2023/03/07 09:17:19;;;;;;;19.97;13.37;;;5.90;99.90;;;;;;4994018;28;20224;-91
2023/03/07 09:19:45;;;;;;;19.80;14.63;;;5.80;99.90;;;;;;4993788;28;20192;-91
2023/03/07 09:22:11;;;;;;;18.10;13.95;;;5.90;99.90;;;;;;4976080;28;20612;-92
2023/03/07 09:24:36;;;;;;;22.27;13.90;;;6.00;99.90;;;;;;4976165;28;20183;-92
2023/03/07 09:27:02;;;;;;;30.17;15.40;;;6.30;99.90;;;;;;5002717;28;20188;-91
2023/03/07 09:29:28;;;;;;;35.95;15.35;;;6.40;99.90;;;;;;4975983;28;20180;-92
2023/03/07 09:31:53;;;;;;;23.15;13.48;;;6.70;99.90;;;;;;4976503;28;20207;-92
2023/03/07 09:34:19;;;;;;;15.60;13.38;;;6.80;99.90;;;;;;4976565;28;20184;-91
2023/03/07 09:36:45;;;;;;;16.80;12.40;;;6.90;99.90;;;;;;5002227;28;20223;-91
2023/03/07 09:39:13;;;;;;;16.85;13.55;;;6.80;99.90;;;;;;4992629;28;20207;-92
2023/03/07 09:41:55;;;;;;;18.20;13.13;;;6.60;99.90;;;;;;4976493;28;20179;-91
2023/03/07 09:45:08;;;;;;;14.70;12.82;;;6.60;99.90;;;;;;4973671;28;20172;-92
2023/03/07 09:48:14;;;;;;;15.80;12.93;;;6.60;99.90;;;;;;4970295;28;20215;-92
2023/03/07 09:50:43;;;;;;;17.15;13.60;;;6.50;99.90;;;;;;4989112;28;20291;-92
2023/03/07 09:53:36;;;;;;;15.73;12.63;;;6.30;99.90;;;;;;4974002;28;20267;-92
2023/03/07 09:56:07;;;;;;;19.38;13.15;;;6.20;99.90;;;;;;4993491;28;20179;-92
2023/03/07 09:58:41;;;;;;;16.83;12.98;;;6.30;99.90;;;;;;4975551;28;20219;-92
2023/03/07 10:01:11;;;;;;;15.55;12.10;;;6.30;99.90;;;;;;4975795;28;20176;-92
2023/03/07 10:04:04;;;;;;;15.43;12.18;;;6.40;99.90;;;;;;4975862;28;20173;-91
2023/03/07 10:06:41;;;;;;;14.43;12.43;;;6.40;99.90;;;;;;4971011;28;20655;-91
2023/03/07 10:09:15;;;;;;;17.65;11.95;;;6.40;99.90;;;;;;4987926;28;20207;-92
2023/03/07 10:11:59;;;;;;;15.32;11.00;;;6.30;99.90;;;;;;4975367;28;20250;-92
2023/03/07 10:14:28;;;;;;;14.07;11.30;;;6.40;99.90;;;;;;4970688;28;20180;-92
2023/03/07 10:17:19;;;;;;;12.88;11.20;;;6.30;99.90;;;;;;4975758;28;20765;-92
2023/03/07 10:19:50;;;;;;;12.90;10.57;;;6.40;99.90;;;;;;4976838;28;20333;-92
2023/03/07 10:22:36;;;;;;;17.35;11.82;;;6.50;99.90;;;;;;4979589;28;20172;-92
2023/03/07 10:25:30;;;;;;;13.90;11.40;;;6.50;99.90;;;;;;4979408;28;20223;-92
2023/03/07 10:28:12;;;;;;;11.43;10.07;;;6.70;99.90;;;;;;4980261;28;20204;-92
2023/03/07 10:30:37;;;;;;;14.23;10.45;;;6.90;99.90;;;;;;4980091;28;20173;-92
2023/03/07 10:33:13;;;;;;;12.60;9.80;;;7.00;99.90;;;;;;5012333;28;20181;-92
2023/03/07 10:35:41;;;;;;;12.80;10.07;;;7.10;99.90;;;;;;4980342;28;20534;-92
2023/03/07 10:38:34;;;;;;;11.23;10.10;;;7.20;99.90;;;;;;4980038;28;20724;-92
2023/03/07 10:41:09;;;;;;;13.05;9.95;;;7.30;99.90;;;;;;4980428;28;20619;-92
2023/03/07 10:43:35;;;;;;;11.90;9.73;;;7.40;99.80;;;;;;4980181;28;20164;-92
2023/03/07 10:46:28;;;;;;;13.48;9.25;;;7.40;99.70;;;;;;5012865;28;20172;-91
2023/03/07 10:49:05;;;;;;;11.52;9.38;;;7.50;99.40;;;;;;4980268;28;20196;-91
2023/03/07 10:51:50;;;;;;;12.88;9.43;;;7.70;99.30;;;;;;4979751;28;20227;-91
2023/03/07 10:54:21;;;;;;;10.68;9.38;;;7.80;98.50;;;;;;4980370;28;20164;-91
2023/03/07 10:57:07;;;;;;;10.63;8.93;;;7.90;98.70;;;;;;4980207;28;20200;-91
2023/03/07 10:59:34;;;;;;;10.43;9.07;;;8.20;98.40;;;;;;4979373;28;20181;-90
2023/03/07 11:02:01;;;;;;;9.48;8.52;;;8.50;97.80;;;;;;4979350;28;20263;-91
2023/03/07 11:04:41;;;;;;;12.90;10.93;;;8.50;98.20;;;;;;4979614;28;20199;-91
2023/03/07 11:07:23;;;;;;;9.05;8.15;;;8.50;96.70;;;;;;4980107;28;20168;-91
2023/03/07 11:09:49;;;;;;;14.73;9.23;;;8.10;97.00;;;;;;4979796;28;20175;-91
2023/03/07 11:12:22;;;;;;;12.07;8.65;;;8.20;97.40;;;;;;5012117;28;20173;-91
2023/03/07 11:14:49;;;;;;;11.80;8.68;;;8.20;96.60;;;;;;4979891;28;20172;-91
2023/03/07 11:17:48;;;;;;;10.35;8.75;;;8.20;96.90;;;;;;4979210;28;20208;-91
2023/03/07 11:20:26;;;;;;;10.32;8.52;;;8.30;97.10;;;;;;4937176;28;20585;-91
2023/03/07 11:23:12;;;;;;;18.92;8.55;;;8.30;96.80;;;;;;4979574;28;20254;-91
2023/03/07 11:25:37;;;;;;;9.98;8.13;;;8.40;96.20;;;;;;4979793;28;20164;-91
2023/03/07 11:28:20;;;;;;;11.65;8.25;;;8.40;96.20;;;;;;5011893;28;20202;-91
2023/03/07 11:30:52;;;;;;;9.52;8.18;;;8.50;96.10;;;;;;4979276;28;20286;-91
2023/03/07 11:33:40;;;;;;;10.07;8.27;;;8.20;95.80;;;;;;4979941;28;20204;-91
2023/03/07 11:36:24;;;;;;;10.75;9.45;;;8.20;95.50;;;;;;4978976;28;20187;-91
2023/03/07 11:39:07;;;;;;;26.05;22.13;;;8.10;96.10;;;;;;4979109;28;20204;-91
2023/03/07 11:41:39;;;;;;;13.02;11.20;;;7.90;95.40;;;;;;4978854;28;20172;-91
2023/03/07 11:44:21;;;;;;;13.85;10.75;;;7.80;96.20;;;;;;4979057;28;20214;-91
2023/03/07 11:47:10;;;;;;;14.63;13.13;;;7.80;95.30;;;;;;4978612;28;20268;-91
2023/03/07 11:50:05;;;;;;;15.23;10.93;;;7.90;94.90;;;;;;4978377;28;20251;-91
2023/03/07 11:52:45;;;;;;;15.23;10.85;;;8.00;95.30;;;;;;4978626;28;20256;-91
2023/03/07 11:55:38;;;;;;;13.98;11.77;;;8.00;94.90;;;;;;4996245;28;20184;-91
2023/03/07 11:58:37;;;;;;;17.30;14.30;;;8.00;95.10;;;;;;4978329;28;20215;-91
2023/03/07 12:01:15;;;;;;;12.77;10.07;;;8.10;94.50;;;;;;4978316;28;20179;-91
2023/03/07 12:03:56;;;;;;;12.27;10.40;;;8.20;94.80;;;;;;4978782;28;20251;-91
2023/03/07 12:06:33;;;;;;;9.63;8.65;;;8.20;94.60;;;;;;4995966;28;20268;-91
2023/03/07 12:09:18;;;;;;;15.55;11.13;;;8.30;94.30;;;;;;4978230;28;20200;-91
2023/03/07 12:12:09;;;;;;;11.52;9.45;;;8.20;93.70;;;;;;4978364;28;20168;-91
2023/03/07 12:14:43;;;;;;;30.33;9.23;;;8.30;93.30;;;;;;4978073;28;20168;-91
2023/03/07 12:17:33;;;;;;;10.52;9.50;;;8.50;93.40;;;;;;4978726;28;20219;-91
2023/03/07 12:20:24;;;;;;;9.98;8.98;;;8.60;93.20;;;;;;4979042;28;20175;-91
2023/03/07 12:23:11;;;;;;;10.25;9.02;;;8.80;92.90;;;;;;4978850;28;20176;-91
2023/03/07 12:25:53;;;;;;;8.75;7.85;;;8.80;92.50;;;;;;4977990;28;20250;-91
2023/03/07 12:28:21;;;;;;;9.15;8.30;;;9.10;92.70;;;;;;4980333;28;20624;-93
2023/03/07 12:31:02;;;;;;;9.60;8.70;;;9.20;92.80;;;;;;4978473;28;20271;-92
2023/03/07 12:33:40;;;;;;;15.55;9.30;;;9.20;92.50;;;;;;4979677;28;20172;-93
2023/03/07 12:36:14;;;;;;;8.50;7.45;;;9.10;92.00;;;;;;4979289;28;20187;-93
2023/03/07 12:38:49;;;;;;;7.95;7.10;;;9.10;92.10;;;;;;4979270;28;20260;-93
2023/03/07 12:41:25;;;;;;;10.70;7.85;;;9.00;91.70;;;;;;4979044;28;20688;-93
2023/03/07 12:43:56;;;;;;;7.85;7.15;;;8.80;91.80;;;;;;4978491;28;20180;-93
2023/03/07 12:46:53;;;;;;;8.57;7.30;;;8.80;92.20;;;;;;4978677;28;20175;-93
2023/03/07 12:49:22;;;;;;;8.68;7.35;;;8.60;92.20;;;;;;4978749;28;20228;-93
2023/03/07 12:52:02;;;;;;;74.10;16.52;;;8.60;92.30;;;;;;4979297;28;20608;-93
2023/03/07 12:54:42;;;;;;;34.72;10.48;;;8.60;92.00;;;;;;4981712;28;20259;-92
2023/03/07 12:57:40;;;;;;;18.30;11.77;;;8.60;92.00;;;;;;4983110;28;20196;-93
2023/03/07 13:00:10;;;;;;;18.08;12.20;;;8.70;91.90;;;;;;4967812;28;20184;-92
2023/03/07 13:02:45;;;;;;;23.85;16.52;;;8.70;92.00;;;;;;4998435;28;20230;-92
2023/03/07 13:05:19;;;;;;;23.83;14.80;;;8.60;92.30;;;;;;4978597;28;20164;-92
2023/03/07 13:07:46;;;;;;;20.48;15.05;;;8.60;92.30;;;;;;4977123;28;20679;-92
2023/03/07 13:10:20;;;;;;;25.50;15.60;;;8.60;91.70;;;;;;4977271;28;20192;-92
2023/03/07 13:12:47;;;;;;;39.05;12.93;;;8.50;91.60;;;;;;4977283;28;20169;-92
2023/03/07 13:15:18;;;;;;;56.30;19.27;;;8.50;92.00;;;;;;4977384;28;20195;-85
2023/03/07 13:17:43;;;;;;;29.25;14.70;;;8.50;91.80;;;;;;4994588;23;20208;-86
2023/03/07 13:20:16;;;;;;;24.15;12.80;;;8.40;92.20;;;;;;4976876;28;20211;-86
2023/03/07 13:22:42;;;;;;;24.13;9.23;;;8.30;91.50;;;;;;4978031;28;20204;-85
2023/03/07 13:25:20;;;;;;;40.58;14.48;;;8.20;91.60;;;;;;4977197;28;20258;-85
2023/03/07 13:27:51;;;;;;;17.58;9.13;;;8.10;91.50;;;;;;4976610;28;20219;-86
2023/03/07 13:30:28;;;;;;;12.15;9.55;;;7.90;91.60;;;;;;4977681;28;20191;-85
2023/03/07 13:32:56;;;;;;;8.30;7.50;;;7.80;91.40;;;;;;4977085;28;20172;-85
2023/03/07 13:35:31;;;;;;;9.57;8.10;;;7.60;91.10;;;;;;4977816;28;20658;-85
2023/03/07 13:38:22;;;;;;;9.52;6.93;;;7.50;91.40;;;;;;4976884;28;20229;-85
2023/03/07 13:40:53;;;;;;;10.05;9.05;;;7.30;91.10;;;;;;4954968;28;20201;-85
2023/03/07 13:43:42;;;;;;;12.27;11.00;;;7.20;91.70;;;;;;4972099;28;20184;-85
2023/03/07 13:46:28;;;;;;;10.25;8.50;;;7.10;91.70;;;;;;4976604;28;20231;-86
2023/03/07 13:49:00;;;;;;;13.27;9.82;;;7.20;92.30;;;;;;4976727;28;20271;-86
2023/03/07 13:51:28;;;;;;;14.90;12.35;;;7.20;92.00;;;;;;4976685;28;20195;-86
2023/03/07 13:54:00;;;;;;;11.68;10.50;;;7.10;91.90;;;;;;4978799;28;20179;-86
2023/03/07 13:56:35;;;;;;;21.35;19.23;;;7.00;92.00;;;;;;4980428;28;20200;-86
2023/03/07 13:59:12;;;;;;;15.20;13.75;;;7.00;91.80;;;;;;4980484;28;20209;-86
2023/03/07 14:01:38;;;;;;;23.38;15.90;;;7.10;92.10;;;;;;4980532;28;20230;-86
2023/03/07 14:04:21;;;;;;;11.85;10.68;;;7.20;92.00;;;;;;4980750;28;20172;-86
2023/03/07 14:07:27;;;;;;;8.90;8.00;;;7.20;92.20;;;;;;4980501;28;20204;-86
2023/03/07 14:10:05;;;;;;;12.35;8.57;;;7.20;91.60;;;;;;4981446;28;20172;-86
2023/03/07 14:16:16;;;;;;;9.38;7.40;;;7.20;92.10;;;;;;4997878;28;20242;-85
2023/03/07 14:18:53;;;;;;;10.93;9.05;;;7.10;91.60;;;;;;4980127;28;20216;-85
2023/03/07 14:21:54;;;;;;;10.52;7.38;;;7.00;92.20;;;;;;4980131;28;20168;-85
2023/03/07 14:24:34;;;;;;;8.30;7.35;;;7.10;92.10;;;;;;4980917;28;20199;-85
2023/03/07 14:30:24;;;;;;;7.88;7.03;;;7.10;91.70;;;;;;4997429;28;20164;-84
2023/03/07 14:32:51;;;;;;;38.25;25.45;;;7.00;91.80;;;;;;4980110;28;20264;-84
2023/03/07 14:35:41;;;;;;;26.65;20.20;;;6.90;91.70;;;;;;4998093;28;20176;-84
2023/03/07 14:38:15;;;;;;;11.73;9.77;;;6.90;91.90;;;;;;4979831;28;20204;-85
2023/03/07 14:40:58;;;;;;;13.57;12.35;;;6.90;92.20;;;;;;4980424;28;20168;-84
2023/03/07 14:44:00;;;;;;;18.98;11.73;;;6.80;92.00;;;;;;4980606;28;20183;-85
2023/03/07 14:47:07;;;;;;;16.40;14.30;;;6.90;92.10;;;;;;4980396;28;20282;-85
2023/03/07 14:50:13;;;;;;;12.52;9.32;;;6.80;91.90;;;;;;4997741;28;20172;-85
2023/03/07 14:52:39;;;;;;;9.57;7.95;;;6.80;92.00;;;;;;4979691;28;20247;-85
2023/03/07 14:55:13;;;;;;;12.48;10.98;;;6.80;92.20;;;;;;4979877;28;20180;-85
2023/03/07 14:58:46;;;;;;;12.68;11.38;;;6.80;92.20;;;;;;4979435;28;20216;-85
2023/03/07 15:02:17;;;;;;;13.55;11.98;;;6.70;91.80;;;;;;4980568;28;20168;-85
2023/03/07 15:04:52;;;;;;;13.98;9.00;;;6.60;92.00;;;;;;4978790;28;20187;-85
2023/03/07 15:07:21;;;;;;;9.38;8.23;;;6.60;92.10;;;;;;4979529;28;20203;-85
2023/03/07 15:09:46;;;;;;;7.80;7.00;;;6.60;92.10;;;;;;4980324;28;20184;-85
2023/03/07 15:12:20;;;;;;;10.48;9.13;;;6.50;92.20;;;;;;4980220;28;20176;-85
2023/03/07 15:14:51;;;;;;;11.02;7.35;;;6.40;92.10;;;;;;4979153;28;20194;-85
2023/03/07 15:17:32;;;;;;;31.05;24.98;;;6.50;92.10;;;;;;4996455;28;20574;-85
2023/03/07 15:20:01;;;;;;;12.77;9.45;;;6.40;92.20;;;;;;4979078;28;20215;-85
2023/03/07 15:23:06;;;;;;;13.02;10.35;;;6.30;92.50;;;;;;4996482;28;20258;-85
2023/03/07 15:25:37;;;;;;;12.32;11.07;;;6.40;93.10;;;;;;4978881;28;20164;-85
2023/03/07 15:28:44;;;;;;;11.30;10.10;;;6.30;92.60;;;;;;4979732;28;20196;-85
2023/03/07 15:31:12;;;;;;;11.35;10.25;;;6.40;92.60;;;;;;4978849;28;20263;-85
2023/03/07 15:34:20;;;;;;;11.95;9.93;;;6.40;92.60;;;;;;4978029;28;20180;-85
2023/03/07 15:36:53;;;;;;;11.35;10.18;;;6.40;92.50;;;;;;4978671;28;20226;-85
2023/03/07 15:39:27;;;;;;;10.23;8.95;;;6.40;92.40;;;;;;4979269;28;20593;-85
2023/03/07 17:10:41;;;;;;;10.75;8.60;;;5.60;95.60;;;;;;5230738;23;20266;-84
2023/03/07 17:13:35;;;;;;;9.87;8.77;;;5.60;95.30;;;;;;4977583;28;20188;-83
2023/03/07 17:16:01;;;;;;;11.98;9.40;;;5.50;95.50;;;;;;4978132;28;20196;-83
2023/03/07 17:18:28;;;;;;;14.40;12.90;;;5.50;95.90;;;;;;4977069;28;20216;-83
2023/03/07 17:20:54;;;;;;;23.85;18.13;;;5.50;95.80;;;;;;4976993;28;20604;-84
2023/03/07 17:23:21;;;;;;;21.47;13.57;;;5.50;95.90;;;;;;4977637;28;20184;-84
2023/03/07 17:25:47;;;;;;;14.23;10.07;;;5.40;95.90;;;;;;4994341;28;20196;-84
2023/03/07 17:28:14;;;;;;;12.50;9.53;;;5.40;95.90;;;;;;4994369;28;20204;-83
2023/03/07 17:30:43;;;;;;;12.50;9.03;;;5.40;95.90;;;;;;4976879;28;20188;-84
2023/03/07 17:33:10;;;;;;;11.50;9.70;;;5.40;96.00;;;;;;4977047;28;20184;-84
2023/03/07 17:35:35;;;;;;;10.00;8.90;;;5.40;96.10;;;;;;4976800;28;20200;-84
2023/03/07 17:38:02;;;;;;;12.07;9.00;;;5.40;95.80;;;;;;4976726;28;20204;-83
2023/03/07 17:40:43;;;;;;;13.40;9.60;;;5.50;96.10;;;;;;5091945;27;20558;-84
2023/03/07 17:43:08;;;;;;;11.32;9.52;;;5.40;95.80;;;;;;5089861;28;20222;-83
2023/03/07 17:45:34;;;;;;;12.07;10.83;;;5.40;95.80;;;;;;5090023;28;20200;-84
2023/03/07 17:47:59;;;;;;;12.30;10.55;;;5.40;95.90;;;;;;5090131;28;20183;-83
2023/03/07 17:50:25;;;;;;;10.63;9.50;;;5.40;96.00;;;;;;5089764;28;20233;-83
2023/03/07 17:53:12;;;;;;;11.73;9.83;;;5.40;95.90;;;;;;5089844;28;20276;-83
2023/03/07 17:55:41;;;;;;;11.63;9.60;;;5.40;95.80;;;;;;5090245;28;20200;-84
2023/03/07 17:58:08;;;;;;;11.50;8.70;;;5.40;96.00;;;;;;5089636;28;20342;-84
2023/03/07 18:01:32;;;;;;;10.37;8.47;;;5.30;95.80;;;;;;5089561;28;20243;-84
2023/03/07 18:03:58;;;;;;;9.40;8.10;;;5.40;95.90;;;;;;5089449;28;20176;-84
2023/03/07 18:06:24;;;;;;;11.23;8.50;;;5.40;96.10;;;;;;5089539;28;20292;-84
2023/03/07 18:08:56;;;;;;;11.57;8.23;;;5.30;96.20;;;;;;5089239;28;20205;-84
2023/03/07 18:11:28;;;;;;;28.20;18.87;;;5.30;96.20;;;;;;5089154;28;20191;-84
2023/03/07 18:14:00;;;;;;;90.43;50.27;;;5.30;95.90;;;;;;5090078;28;20259;-84
2023/03/07 18:16:26;;;;;;;40.70;25.83;;;5.30;96.00;;;;;;5090554;28;20193;-84
2023/03/07 18:18:51;;;;;;;46.87;28.73;;;5.30;96.20;;;;;;5089124;28;20553;-83
2023/03/07 18:21:51;;;;;;;23.90;17.23;;;5.30;96.10;;;;;;5089937;28;20244;-83
2023/03/07 18:24:19;;;;;;;29.63;19.33;;;5.30;96.10;;;;;;5088964;28;20184;-84
2023/03/07 18:26:45;;;;;;;30.23;23.02;;;5.40;96.10;;;;;;5088724;28;20208;-84
2023/03/07 18:29:10;;;;;;;21.37;18.03;;;5.40;96.30;;;;;;5089200;28;20177;-84
2023/03/07 18:31:36;;;;;;;19.73;13.90;;;5.40;96.50;;;;;;5088909;28;20177;-84
2023/03/07 18:34:03;;;;;;;14.00;11.53;;;5.30;96.50;;;;;;5089156;28;20184;-84
2023/03/07 18:36:28;;;;;;;12.13;10.53;;;5.40;96.60;;;;;;5088689;28;20200;-85
2023/03/07 18:38:54;;;;;;;12.43;10.33;;;5.30;96.80;;;;;;5089339;28;20223;-83
2023/03/07 18:41:25;;;;;;;11.63;9.13;;;5.30;96.70;;;;;;5088986;28;20173;-84
2023/03/07 18:43:55;;;;;;;12.00;9.03;;;5.30;96.90;;;;;;5089952;28;20157;-84
2023/03/07 18:46:25;;;;;;;10.13;8.33;;;5.30;96.90;;;;;;5088878;28;20204;-84
2023/03/07 18:48:53;;;;;;;11.00;8.43;;;5.30;96.90;;;;;;5088877;28;20223;-85
2023/03/07 18:51:32;;;;;;;10.27;8.10;;;5.30;96.90;;;;;;5079333;28;20182;-85
2023/03/07 18:54:29;;;;;;;10.40;8.20;;;5.30;97.10;;;;;;5074946;28;20181;-85
2023/03/07 18:57:09;;;;;;;9.90;8.00;;;5.30;97.00;;;;;;5075600;28;20211;-86
2023/03/07 19:00:17;;;;;;;8.27;7.40;;;5.30;97.30;;;;;;5074705;28;20217;-85
2023/03/07 19:03:47;;;;;;;10.00;8.17;;;5.30;97.50;;;;;;5076233;28;20173;-82
2023/03/07 19:06:14;;;;;;;10.83;8.63;;;5.30;97.70;;;;;;5075224;28;20201;-84
2023/03/07 19:08:41;;;;;;;9.25;8.25;;;5.30;97.90;;;;;;5074654;28;20192;-84
2023/03/07 19:11:09;;;;;;;11.93;9.20;;;5.20;98.00;;;;;;5074603;28;20181;-84
2023/03/07 19:13:34;;;;;;;10.43;9.13;;;5.20;98.20;;;;;;5074453;28;20659;-85
2023/03/07 19:16:06;;;;;;;11.13;8.70;;;5.20;98.20;;;;;;5075348;28;20193;-85
2023/03/07 19:18:33;;;;;;;11.90;9.40;;;5.20;98.20;;;;;;5074499;28;20200;-84
2023/03/07 19:20:58;;;;;;;15.20;9.20;;;5.20;98.20;;;;;;5074688;28;20219;-84
2023/03/07 19:23:39;;;;;;;11.45;8.45;;;5.20;98.30;;;;;;5074402;28;20671;-84
2023/03/07 19:26:32;;;;;;;10.83;8.80;;;5.20;98.20;;;;;;5074566;28;20679;-85
2023/03/07 19:28:58;;;;;;;10.33;8.80;;;5.20;98.20;;;;;;5074326;28;20173;-85
2023/03/07 19:31:28;;;;;;;11.90;9.23;;;5.20;98.30;;;;;;5074192;28;20184;-85
2023/03/07 19:33:54;;;;;;;9.87;8.83;;;5.20;98.20;;;;;;5074220;28;20186;-85
2023/03/07 19:36:37;;;;;;;9.93;8.93;;;5.20;98.20;;;;;;5074310;28;20232;-85
2023/03/07 19:39:03;;;;;;;10.98;8.18;;;5.20;98.20;;;;;;5074100;28;20227;-85